Time;durP1;ratioP1;P1;durP2;ratioP2;P2;SDS_P1;SDS_P2;PMS_P1;PMS_P2;Temp;Humidity;BMP_temperature;BMP_pressure;BME280_temperature;BME280_humidity;BME280_pressure;Samples;Min_cycle;Max_cycle;Signal;HPM_P1;HPM_P2
2023/12/11 00:01:18;;;;;;;13.10;3.10;;;9.30;99.90;;;8.23;100.00;98903.47;5073535;28;20245;-70
2023/12/11 00:03:47;;;;;;;11.80;3.80;;;9.10;99.90;;;8.36;100.00;98913.47;5073463;28;20308;-70
2023/12/11 00:06:15;;;;;;;14.17;3.67;;;9.20;99.90;;;8.46;100.00;98914.81;5073455;28;20265;-70
2023/12/11 00:08:43;;;;;;;10.97;2.97;;;9.30;99.90;;;8.39;100.00;98913.13;5073482;28;20208;-70
2023/12/11 00:11:12;;;;;;;12.20;3.20;;;9.30;99.90;;;8.38;100.00;98922.97;5073491;28;20209;-70
2023/12/11 00:13:40;;;;;;;13.13;2.90;;;9.30;99.90;;;8.41;100.00;98927.91;5073383;28;20278;-70
2023/12/11 00:16:09;;;;;;;12.50;2.67;;;9.30;99.90;;;8.45;100.00;98913.19;5073370;28;20338;-70
2023/12/11 00:18:39;;;;;;;10.73;3.20;;;9.30;99.90;;;8.48;100.00;98925.31;5073061;28;20223;-70
2023/12/11 00:21:07;;;;;;;12.63;3.30;;;9.30;99.90;;;8.55;100.00;98923.53;5073676;28;20255;-70
2023/12/11 00:23:36;;;;;;;12.10;3.30;;;9.40;99.90;;;8.62;99.25;98938.56;5073085;28;20723;-70
2023/12/11 00:26:05;;;;;;;14.50;3.60;;;9.50;99.90;;;8.70;98.66;98929.59;5073483;28;20284;-70
2023/12/11 00:28:33;;;;;;;8.67;3.00;;;9.50;99.90;;;8.74;98.32;98949.53;5073272;28;20213;-70
2023/12/11 00:31:06;;;;;;;9.87;3.63;;;9.60;99.90;;;8.70;98.47;98936.78;5073268;28;20205;-70
2023/12/11 00:33:38;;;;;;;11.50;3.17;;;9.50;99.90;;;8.60;99.48;98943.25;5072805;28;20241;-70
2023/12/11 00:36:07;;;;;;;10.73;2.70;;;9.50;99.90;;;8.58;99.36;98947.16;5073197;28;20202;-70
2023/12/11 00:38:35;;;;;;;12.90;3.40;;;9.40;99.90;;;8.53;99.42;98950.38;5072879;28;20209;-70
2023/12/11 00:41:04;;;;;;;14.00;3.43;;;9.40;99.90;;;8.52;99.53;98950.59;5073194;28;20201;-70
2023/12/11 00:43:32;;;;;;;11.73;3.10;;;9.30;99.90;;;8.49;99.93;98957.09;5073079;28;20229;-70
2023/12/11 00:46:14;;;;;;;11.57;3.03;;;9.30;99.90;;;8.45;100.00;98955.84;5073149;28;20217;-70
2023/12/11 00:48:44;;;;;;;15.23;3.00;;;9.30;99.90;;;8.41;100.00;98956.41;5072758;28;20205;-70
2023/12/11 00:51:17;;;;;;;9.97;3.40;;;9.20;99.90;;;8.47;99.50;98951.13;5073093;28;20192;-70
2023/12/11 00:53:46;;;;;;;16.27;3.93;;;9.30;99.90;;;8.49;99.04;98956.28;5072987;28;20286;-70
2023/12/11 00:56:14;;;;;;;18.00;4.10;;;9.30;99.90;;;8.49;99.16;98957.09;5072992;28;20284;-70
2023/12/11 00:58:43;;;;;;;14.00;3.13;;;9.30;99.90;;;8.45;99.16;98953.19;5076178;28;20240;-70
2023/12/11 01:01:11;;;;;;;12.30;3.57;;;9.30;99.90;;;8.50;98.71;98964.09;5076787;28;20256;-70
2023/12/11 01:03:40;;;;;;;13.43;3.67;;;9.30;99.90;;;8.56;98.34;98962.53;5076641;28;20226;-70
2023/12/11 01:06:10;;;;;;;17.70;3.77;;;9.40;99.90;;;8.54;98.39;98960.03;5076711;28;20209;-70
2023/12/11 01:08:39;;;;;;;12.23;3.20;;;9.40;99.90;;;8.58;97.67;98963.97;5076585;28;20316;-70
2023/12/11 01:11:09;;;;;;;19.20;4.30;;;9.40;99.90;;;8.52;98.00;98972.75;5076610;28;20213;-70
2023/12/11 01:13:38;;;;;;;15.97;3.43;;;9.40;99.90;;;8.49;98.04;98975.75;5076190;28;20710;-70
2023/12/11 01:16:07;;;;;;;14.73;3.67;;;9.30;99.90;;;8.42;98.88;98979.41;5076476;28;20205;-70
2023/12/11 01:18:35;;;;;;;12.73;3.43;;;9.30;99.90;;;8.42;98.61;98982.91;5076155;28;20201;-70
2023/12/11 01:21:05;;;;;;;15.47;3.37;;;9.30;99.90;;;8.38;99.17;98986.13;5076465;28;20258;-70
2023/12/11 01:23:34;;;;;;;13.43;3.60;;;9.20;99.90;;;8.49;97.55;98994.44;5076140;28;20696;-70
2023/12/11 01:26:03;;;;;;;13.23;3.43;;;9.30;99.90;;;8.45;97.96;99009.19;5076360;28;20244;-71
2023/12/11 01:28:31;;;;;;;18.33;4.43;;;9.30;99.90;;;8.44;97.99;99007.53;5076197;28;20221;-71
2023/12/11 01:31:00;;;;;;;15.83;4.07;;;9.20;99.90;;;8.47;97.53;99011.66;5075941;28;20570;-71
2023/12/11 01:33:28;;;;;;;16.47;3.87;;;9.30;99.90;;;8.39;98.29;99015.25;5075709;28;20264;-70
2023/12/11 01:35:56;;;;;;;19.80;3.90;;;9.20;99.90;;;8.39;98.26;99009.91;5075871;28;20579;-70
2023/12/11 01:38:25;;;;;;;21.10;3.80;;;9.20;99.90;;;8.42;97.58;99025.56;5076120;28;20197;-70
2023/12/11 01:40:54;;;;;;;14.87;3.67;;;9.30;99.90;;;8.44;97.91;99022.69;5076088;28;20228;-70
2023/12/11 01:43:23;;;;;;;20.63;3.80;;;9.30;99.90;;;8.40;98.49;99032.91;5075673;28;20774;-70
2023/12/11 01:46:04;;;;;;;15.83;3.60;;;9.20;99.90;;;8.41;98.59;99023.06;5075669;28;20669;-70
2023/12/11 01:48:33;;;;;;;13.50;3.73;;;9.20;99.90;;;8.39;98.47;99030.44;5075878;28;20205;-70
2023/12/11 01:51:03;;;;;;;17.43;3.67;;;9.20;99.90;;;8.42;98.40;99030.91;5075917;28;20205;-70
2023/12/11 01:53:32;;;;;;;15.27;3.87;;;9.30;99.90;;;8.41;98.75;99034.56;5075481;28;20725;-70
2023/12/11 01:56:03;;;;;;;13.50;3.67;;;9.30;99.90;;;8.48;98.16;99040.81;5075798;28;20236;-70
2023/12/11 01:58:31;;;;;;;15.60;4.17;;;9.30;99.90;;;8.51;97.88;99051.09;5075460;28;20651;-70
2023/12/11 02:01:00;;;;;;;16.53;3.87;;;9.30;99.90;;;8.49;97.93;99047.78;5075706;28;20274;-70
2023/12/11 02:03:29;;;;;;;15.03;3.60;;;9.30;99.90;;;8.54;97.41;99049.88;5075678;28;20225;-70
2023/12/11 02:05:57;;;;;;;17.20;3.60;;;9.30;99.90;;;8.58;97.01;99049.34;5075605;28;20236;-70
2023/12/11 02:08:26;;;;;;;20.00;4.47;;;9.40;99.90;;;8.57;97.55;99055.69;5074708;28;20235;-70
2023/12/11 02:10:54;;;;;;;14.70;3.67;;;9.40;99.90;;;8.56;97.57;99048.69;5075246;28;20209;-70
2023/12/11 02:13:24;;;;;;;12.20;3.67;;;9.40;99.90;;;8.51;98.00;99043.09;5075141;28;20729;-70
2023/12/11 02:15:53;;;;;;;14.60;3.57;;;9.40;99.90;;;8.54;97.19;99050.72;5075433;28;20300;-70
2023/12/11 02:18:21;;;;;;;13.20;4.10;;;9.40;99.90;;;8.53;97.04;99057.06;5075402;28;20291;-70
2023/12/11 02:20:50;;;;;;;18.37;4.03;;;9.40;99.90;;;8.61;96.20;99056.97;5075338;28;20210;-70
2023/12/11 02:23:30;;;;;;;14.93;3.50;;;9.40;99.90;;;8.59;96.05;99053.66;5075922;28;20719;-70
2023/12/11 02:26:12;;;;;;;20.47;4.23;;;9.40;99.90;;;8.65;95.85;99046.72;5074916;28;20723;-70
2023/12/11 02:28:41;;;;;;;18.50;4.60;;;9.50;99.90;;;8.64;95.78;99056.56;5075104;28;20296;-70
2023/12/11 02:31:09;;;;;;;19.60;4.20;;;9.50;99.90;;;8.58;96.28;99060.00;5074808;28;20667;-70
2023/12/11 02:33:38;;;;;;;13.23;3.47;;;9.40;99.90;;;8.62;95.49;99055.94;5074622;28;20277;-70
2023/12/11 02:36:07;;;;;;;25.63;4.53;;;9.50;99.90;;;8.63;96.31;99060.25;5075054;28;20202;-70
2023/12/11 02:38:36;;;;;;;19.20;4.30;;;9.50;99.90;;;8.57;96.85;99077.00;5074620;28;20653;-70
2023/12/11 02:41:06;;;;;;;20.77;5.00;;;9.40;99.90;;;8.58;96.26;99068.00;5074927;28;20220;-70
2023/12/11 02:43:35;;;;;;;18.50;4.30;;;9.40;99.90;;;8.61;95.38;99054.28;5074847;28;20267;-70
2023/12/11 02:46:04;;;;;;;21.83;4.97;;;9.50;99.90;;;8.60;95.88;99055.28;5074849;28;20248;-70
2023/12/11 02:48:32;;;;;;;20.00;4.00;;;9.40;99.90;;;8.55;96.18;99057.72;5074681;28;20264;-70
2023/12/11 02:51:01;;;;;;;23.83;4.87;;;9.40;99.90;;;8.54;96.33;99057.88;5074695;28;20237;-70
2023/12/11 02:53:29;;;;;;;26.40;4.67;;;9.40;99.90;;;8.53;96.67;99056.22;5074278;28;20711;-70
2023/12/11 02:55:58;;;;;;;20.53;4.70;;;9.30;99.90;;;8.50;96.37;99061.94;5074612;28;20201;-70
2023/12/11 02:58:27;;;;;;;19.27;4.50;;;9.30;99.90;;;8.48;97.07;99061.31;5074592;28;20240;-70
2023/12/11 03:00:55;;;;;;;20.00;4.80;;;9.30;99.90;;;8.46;97.22;99052.69;5074511;28;20206;-71
2023/12/11 03:03:24;;;;;;;21.13;4.70;;;9.30;99.90;;;8.49;97.06;99045.09;5074392;28;20283;-71
2023/12/11 03:05:52;;;;;;;15.90;3.87;;;9.30;99.90;;;8.51;96.97;99045.75;5074428;28;20259;-71
2023/12/11 03:08:21;;;;;;;23.03;4.43;;;9.30;99.90;;;8.53;96.69;99051.72;5073928;28;20706;-71
2023/12/11 03:10:49;;;;;;;21.60;4.83;;;9.40;99.90;;;8.50;96.90;99045.94;5074301;28;20240;-70
2023/12/11 03:13:17;;;;;;;25.30;5.10;;;9.30;99.90;;;8.48;97.14;99046.16;5073913;28;20702;-70
2023/12/11 03:15:47;;;;;;;19.57;3.97;;;9.30;99.90;;;8.47;96.96;99048.97;5074223;28;20205;-70
2023/12/11 03:18:15;;;;;;;24.93;4.63;;;9.30;99.90;;;8.46;96.82;99048.16;5074159;28;20255;-70
2023/12/11 03:20:44;;;;;;;25.10;4.80;;;9.30;99.90;;;8.43;97.19;99045.88;5073852;28;20205;-70
2023/12/11 03:23:12;;;;;;;21.90;4.97;;;9.20;99.90;;;8.44;97.30;99049.38;5073705;28;20229;-70
2023/12/11 03:25:40;;;;;;;20.37;4.57;;;9.20;99.90;;;8.41;97.70;99055.91;5074022;28;20284;-70
2023/12/11 03:28:09;;;;;;;23.33;4.60;;;9.20;99.90;;;8.41;97.64;99050.56;5073918;28;20257;-70
2023/12/11 03:30:37;;;;;;;21.13;5.00;;;9.20;99.90;;;8.36;98.31;99046.78;5073950;28;20232;-70
2023/12/11 03:33:07;;;;;;;19.33;4.60;;;9.20;99.90;;;8.36;98.31;99047.63;5073399;28;20718;-70
2023/12/11 03:35:35;;;;;;;20.33;4.70;;;9.20;99.90;;;8.34;98.64;99044.34;5073624;28;20209;-71
2023/12/11 03:38:03;;;;;;;26.53;5.17;;;9.20;99.90;;;8.34;98.72;99048.84;5073575;28;20235;-71
2023/12/11 03:40:31;;;;;;;16.83;4.83;;;9.20;99.90;;;8.35;98.85;99051.34;5073490;28;20269;-71
2023/12/11 03:43:00;;;;;;;22.00;5.40;;;9.20;99.90;;;8.42;97.49;99046.06;5073386;28;20782;-71
2023/12/11 03:45:28;;;;;;;21.80;4.93;;;9.30;99.90;;;8.43;97.90;99047.69;5073713;28;20212;-71
2023/12/11 03:47:56;;;;;;;21.00;4.83;;;9.20;99.90;;;8.49;96.61;99050.44;5073655;28;20241;-71
2023/12/11 03:50:26;;;;;;;19.13;4.73;;;9.30;99.90;;;8.44;97.07;99044.03;5073657;28;20205;-71
2023/12/11 03:52:54;;;;;;;23.17;5.17;;;9.30;99.90;;;8.43;96.23;99042.38;5073602;28;20263;-71
2023/12/11 03:55:23;;;;;;;21.63;5.27;;;9.20;99.90;;;8.39;96.60;99049.91;5073684;28;20206;-71
2023/12/11 03:57:51;;;;;;;20.20;5.03;;;9.20;99.90;;;8.38;96.11;99040.28;5073608;28;20296;-71
2023/12/11 04:00:19;;;;;;;22.67;4.53;;;9.20;99.90;;;8.38;95.91;99047.47;5073551;28;20259;-71
2023/12/11 04:02:47;;;;;;;18.80;4.60;;;9.20;99.90;;;8.34;96.02;99044.34;5073176;28;20711;-71
2023/12/11 04:05:16;;;;;;;18.60;4.33;;;9.20;99.90;;;8.30;96.34;99045.72;5073507;28;20206;-71
2023/12/11 04:07:45;;;;;;;21.33;5.27;;;9.10;99.90;;;8.30;95.69;99048.38;5073141;28;20762;-71
2023/12/11 04:10:13;;;;;;;20.43;4.47;;;9.10;99.90;;;8.26;96.07;99043.56;5073104;28;20695;-71
2023/12/11 04:12:43;;;;;;;21.23;5.47;;;9.10;99.90;;;8.26;95.61;99044.41;5073054;28;20770;-71
2023/12/11 04:15:11;;;;;;;18.37;4.77;;;9.10;99.90;;;8.26;95.33;99046.22;5073401;28;20207;-71
2023/12/11 04:17:42;;;;;;;17.60;5.20;;;9.10;99.90;;;8.27;94.64;99043.41;5073072;28;20691;-71
2023/12/11 04:20:11;;;;;;;22.33;5.40;;;9.10;99.90;;;8.26;95.10;99049.72;5073100;28;20671;-71
2023/12/11 04:22:40;;;;;;;23.50;4.87;;;9.10;99.90;;;8.25;95.00;99040.09;5073242;28;20230;-71
2023/12/11 04:25:09;;;;;;;25.17;5.53;;;9.10;99.90;;;8.24;94.68;99030.44;5073320;28;20201;-71
2023/12/11 04:27:38;;;;;;;23.43;5.20;;;9.00;99.90;;;8.20;94.80;99033.66;5073292;28;20258;-71
2023/12/11 04:30:08;;;;;;;24.83;5.63;;;9.00;99.90;;;8.21;94.14;99028.16;5073194;28;20225;-71
2023/12/11 04:32:37;;;;;;;25.70;5.63;;;9.00;99.90;;;8.19;94.49;99030.16;5074406;28;20233;-71
2023/12/11 04:35:06;;;;;;;25.00;5.47;;;9.00;99.90;;;8.19;93.97;99019.50;5077353;28;20211;-71
2023/12/11 04:37:34;;;;;;;18.53;4.77;;;9.00;99.90;;;8.16;94.35;99020.72;5077292;28;20201;-71
2023/12/11 04:40:03;;;;;;;24.47;5.23;;;9.00;99.90;;;8.18;94.05;99022.38;5076928;28;20750;-71
2023/12/11 04:42:32;;;;;;;23.03;5.33;;;9.00;99.90;;;8.13;94.49;99025.59;5077102;28;20225;-71
2023/12/11 04:45:01;;;;;;;21.07;5.10;;;9.00;99.90;;;8.15;94.33;99026.22;5076836;28;20766;-71
2023/12/11 04:47:29;;;;;;;20.20;5.37;;;9.00;99.90;;;8.13;94.62;99021.09;5077522;28;20248;-71
2023/12/11 04:49:57;;;;;;;28.17;6.27;;;9.00;99.90;;;8.10;95.14;99020.63;5077011;28;20243;-71
2023/12/11 04:52:26;;;;;;;25.27;5.47;;;8.90;99.90;;;8.12;94.83;99027.41;5076594;28;20653;-71
2023/12/11 04:54:54;;;;;;;22.67;6.07;;;8.90;99.90;;;8.10;95.31;99021.47;5076660;28;20666;-71
2023/12/11 04:57:22;;;;;;;25.67;7.10;;;8.90;99.90;;;8.05;95.35;99023.84;5076847;28;20251;-71
2023/12/11 04:59:52;;;;;;;23.73;6.33;;;8.90;99.90;;;8.04;95.62;99018.72;5076881;28;20300;-71
2023/12/11 05:02:20;;;;;;;26.10;6.37;;;8.80;99.90;;;8.00;95.59;99025.41;5076717;28;20261;-71
2023/12/11 05:04:48;;;;;;;26.30;6.20;;;8.80;99.90;;;7.97;96.09;99023.97;5076458;28;20218;-71
2023/12/11 05:07:17;;;;;;;25.10;5.80;;;8.80;99.90;;;7.99;96.84;99029.09;5076675;28;20304;-71
2023/12/11 05:09:45;;;;;;;18.23;5.87;;;8.80;99.90;;;8.00;96.75;99025.41;5076580;28;20236;-71
2023/12/11 05:12:14;;;;;;;27.83;6.17;;;8.80;99.90;;;8.02;96.95;99016.22;5076533;28;20232;-71
2023/12/11 05:14:42;;;;;;;21.03;5.63;;;8.80;99.90;;;8.03;97.12;99012.56;5077098;28;20206;-71
2023/12/11 05:17:12;;;;;;;27.53;6.90;;;8.80;99.90;;;8.04;97.34;99016.03;5076545;28;20209;-71
2023/12/11 05:19:40;;;;;;;24.23;6.73;;;8.80;99.90;;;8.06;98.17;99020.16;5076505;28;20202;-71
2023/12/11 05:22:08;;;;;;;25.07;6.10;;;8.90;99.90;;;8.04;98.31;99016.03;5076069;28;20633;-70
2023/12/11 05:24:37;;;;;;;21.43;6.27;;;8.90;99.90;;;8.05;98.44;99015.00;5076338;28;20208;-70
2023/12/11 05:27:05;;;;;;;24.67;6.10;;;8.90;99.90;;;8.02;99.04;99012.72;5076356;28;20254;-70
2023/12/11 05:29:33;;;;;;;26.20;6.77;;;8.80;99.90;;;8.04;98.99;99008.06;5076092;28;20221;-70
2023/12/11 05:32:02;;;;;;;32.30;6.27;;;8.90;99.90;;;8.02;99.24;99002.91;5075908;28;20261;-70
2023/12/11 05:34:31;;;;;;;27.60;5.97;;;8.80;99.90;;;8.00;99.58;99001.44;5075930;28;20639;-70
2023/12/11 05:37:00;;;;;;;24.93;5.70;;;8.80;99.90;;;8.00;99.11;98998.78;5076144;28;20201;-73
2023/12/11 05:39:28;;;;;;;28.80;6.00;;;8.80;99.90;;;7.99;99.19;98999.78;5076104;28;20201;-71
2023/12/11 05:41:56;;;;;;;23.63;5.90;;;8.80;99.90;;;7.96;99.50;98992.16;5076024;28;20369;-71
2023/12/11 05:44:24;;;;;;;26.10;5.90;;;8.80;99.90;;;7.94;99.27;98988.88;5075479;28;20738;-71
2023/12/11 05:46:53;;;;;;;29.70;6.37;;;8.80;99.90;;;7.93;99.41;98988.03;5075964;28;20201;-71
2023/12/11 05:49:21;;;;;;;30.60;5.87;;;8.70;99.90;;;7.93;99.08;98992.53;5075813;28;20222;-71
2023/12/11 05:51:51;;;;;;;27.20;6.47;;;8.70;99.90;;;7.92;99.37;98985.53;5075872;28;20229;-71
2023/12/11 05:54:19;;;;;;;23.93;5.27;;;8.70;99.90;;;7.95;99.22;98986.00;5075809;28;20205;-71
2023/12/11 05:56:47;;;;;;;21.30;5.03;;;8.80;99.90;;;7.94;99.70;98989.69;5075694;28;20235;-71
2023/12/11 05:59:16;;;;;;;24.37;5.50;;;8.80;99.90;;;7.98;99.74;98984.81;5075498;28;20212;-71
2023/12/11 06:01:44;;;;;;;17.63;4.67;;;8.80;99.90;;;7.95;99.57;98988.66;5075710;28;20308;-71
2023/12/11 06:04:12;;;;;;;28.13;5.53;;;8.80;99.90;;;7.96;99.45;98981.50;5075578;28;20209;-71
2023/12/11 06:06:40;;;;;;;25.97;5.13;;;8.80;99.90;;;7.99;99.44;98986.44;5074658;28;20209;-71
2023/12/11 06:09:10;;;;;;;24.63;5.20;;;8.80;99.90;;;8.05;99.31;98985.69;5075472;28;20216;-71
2023/12/11 06:11:38;;;;;;;21.03;4.90;;;8.90;99.90;;;8.03;99.44;98987.75;5075452;28;20212;-71
2023/12/11 06:14:07;;;;;;;26.83;5.40;;;8.80;99.90;;;8.01;99.44;98985.25;5075248;28;20300;-71
2023/12/11 06:16:35;;;;;;;20.63;5.47;;;8.80;99.90;;;8.00;99.77;98978.28;5075466;28;20212;-72
2023/12/11 06:19:03;;;;;;;17.60;5.13;;;8.80;99.90;;;8.04;99.50;98984.06;5075405;28;20287;-72
2023/12/11 06:21:32;;;;;;;30.37;6.10;;;8.90;99.90;;;8.03;99.58;98993.91;5074959;28;20659;-72
2023/12/11 06:24:00;;;;;;;26.73;5.17;;;8.90;99.90;;;8.08;100.00;98983.47;5075336;28;20209;-72
2023/12/11 06:26:34;;;;;;;22.50;5.30;;;8.90;99.90;;;8.09;99.84;98987.81;5074969;28;20701;-72
2023/12/11 06:29:02;;;;;;;28.03;5.40;;;8.90;99.90;;;8.06;100.00;98992.69;5075011;28;20600;-72
2023/12/11 06:31:31;;;;;;;22.13;5.23;;;8.90;99.90;;;8.05;100.00;98985.69;5075076;28;20225;-72
2023/12/11 06:33:59;;;;;;;24.83;5.57;;;8.80;99.90;;;8.03;100.00;98985.06;5074746;28;20213;-72
2023/12/11 06:36:28;;;;;;;24.50;5.37;;;8.90;99.90;;;7.99;100.00;98991.78;5075079;28;20213;-72
2023/12/11 06:38:57;;;;;;;22.87;5.43;;;8.80;99.90;;;7.96;100.00;98981.50;5075029;28;20205;-72
2023/12/11 06:41:25;;;;;;;26.70;5.43;;;8.80;99.90;;;7.95;100.00;98977.16;5074696;28;20652;-72
2023/12/11 06:43:57;;;;;;;22.50;4.77;;;8.70;99.90;;;7.93;100.00;98976.53;5074862;28;20320;-72
2023/12/11 06:46:28;;;;;;;25.97;5.53;;;8.70;99.90;;;7.91;100.00;98978.59;5074997;28;20277;-71
2023/12/11 06:48:58;;;;;;;23.60;4.97;;;8.70;99.90;;;7.90;100.00;98972.41;5074583;28;20602;-72
2023/12/11 06:51:27;;;;;;;26.13;5.57;;;8.70;99.90;;;7.88;100.00;98978.94;5074635;28;20706;-72
2023/12/11 06:53:58;;;;;;;28.47;5.57;;;8.70;99.90;;;7.86;100.00;98981.78;5075697;28;20204;-72
2023/12/11 06:56:30;;;;;;;24.27;5.30;;;8.70;99.90;;;7.84;100.00;98983.78;5074888;28;20190;-72
2023/12/11 06:59:01;;;;;;;28.10;5.53;;;8.60;99.90;;;7.86;100.00;98978.28;5074660;28;20185;-72
2023/12/11 07:01:30;;;;;;;26.60;5.17;;;8.70;99.90;;;7.86;100.00;98980.97;5074559;28;20209;-72
2023/12/11 07:03:59;;;;;;;18.50;5.00;;;8.70;99.90;;;7.87;100.00;98990.63;5074448;28;20251;-72
2023/12/11 07:06:28;;;;;;;27.37;5.97;;;8.70;99.90;;;7.88;100.00;98995.75;5074500;28;20209;-72
2023/12/11 07:08:56;;;;;;;25.57;4.57;;;8.70;99.90;;;7.86;100.00;98997.78;5074424;28;20201;-72
2023/12/11 07:11:25;;;;;;;27.80;5.37;;;8.70;99.90;;;7.86;100.00;98996.94;5073973;28;20635;-72
2023/12/11 07:13:55;;;;;;;24.80;5.17;;;8.70;99.90;;;7.83;100.00;98989.31;5074278;28;20226;-72
2023/12/11 07:16:25;;;;;;;28.27;5.20;;;8.60;99.90;;;7.80;100.00;98992.38;5074254;28;20211;-72
2023/12/11 07:18:53;;;;;;;21.47;5.00;;;8.60;99.90;;;7.79;100.00;98996.03;5074859;28;20220;-72
2023/12/11 07:21:22;;;;;;;23.20;4.93;;;8.60;99.90;;;7.77;100.00;98990.91;5074196;28;20198;-72
2023/12/11 07:23:50;;;;;;;22.13;5.30;;;8.60;99.90;;;7.76;100.00;99001.72;5074109;28;20308;-72
2023/12/11 07:26:19;;;;;;;17.77;4.47;;;8.60;99.90;;;7.75;100.00;98997.41;5074184;28;20259;-72
2023/12/11 07:28:47;;;;;;;17.23;4.33;;;8.60;99.90;;;7.74;100.00;98982.47;5074101;28;20279;-71
2023/12/11 07:31:15;;;;;;;20.87;4.63;;;8.50;99.90;;;7.72;100.00;98984.47;5073640;28;20691;-72
2023/12/11 07:33:45;;;;;;;18.07;4.00;;;8.50;99.90;;;7.73;100.00;98996.78;5073508;28;20237;-72
2023/12/11 07:36:15;;;;;;;20.13;4.63;;;8.50;99.90;;;7.73;100.00;98996.78;5073576;28;20249;-72
2023/12/11 07:38:43;;;;;;;22.33;4.70;;;8.50;99.90;;;7.73;100.00;99002.09;5073896;28;20240;-72
2023/12/11 07:41:11;;;;;;;22.73;5.23;;;8.50;99.90;;;7.74;100.00;99003.75;5073567;28;20544;-72
2023/12/11 07:43:39;;;;;;;19.67;4.93;;;8.50;99.90;;;7.75;100.00;99000.06;5073763;28;20263;-72
2023/12/11 07:46:08;;;;;;;20.27;3.67;;;8.60;99.90;;;7.74;100.00;98993.09;5073466;28;20638;-72
2023/12/11 07:48:36;;;;;;;16.70;4.20;;;8.50;99.90;;;7.74;100.00;98991.25;5073440;28;20686;-71
2023/12/11 07:51:06;;;;;;;25.67;4.43;;;8.60;99.90;;;7.75;100.00;98986.75;5073986;28;20347;-71
2023/12/11 07:53:35;;;;;;;20.20;4.43;;;8.60;99.90;;;7.75;100.00;98986.75;5073644;28;20737;-71
2023/12/11 07:56:04;;;;;;;21.07;4.27;;;8.60;99.90;;;7.75;100.00;98976.94;5073702;28;20288;-71
2023/12/11 07:58:32;;;;;;;18.17;4.07;;;8.60;99.90;;;7.74;100.00;98982.47;5073621;28;20578;-71
2023/12/11 08:01:00;;;;;;;21.20;4.90;;;8.60;99.90;;;7.75;100.00;98989.41;5073737;28;20208;-71
2023/12/11 08:03:29;;;;;;;21.00;4.80;;;8.60;99.90;;;7.77;100.00;98982.91;5073386;28;20643;-71
2023/12/11 08:05:57;;;;;;;20.93;5.00;;;8.60;99.90;;;7.77;100.00;98988.25;5073324;28;20205;-71
2023/12/11 08:08:27;;;;;;;23.40;5.37;;;8.60;99.90;;;7.81;100.00;98978.03;5072873;28;20224;-71
2023/12/11 08:10:55;;;;;;;21.00;5.40;;;8.60;99.90;;;7.81;100.00;98983.38;5073437;28;20324;-71
2023/12/11 08:13:24;;;;;;;25.00;6.37;;;8.60;99.90;;;7.80;100.00;98981.72;5073380;28;20275;-66
2023/12/11 08:15:52;;;;;;;21.30;5.83;;;8.60;99.90;;;7.81;100.00;98986.03;5073127;28;20205;-66
2023/12/11 08:18:21;;;;;;;24.00;5.80;;;8.60;99.90;;;7.82;100.00;98979.66;5072939;28;20262;-66
2023/12/11 08:20:50;;;;;;;23.83;5.87;;;8.60;99.90;;;7.83;100.00;98984.00;5073404;28;20206;-66
2023/12/11 08:23:21;;;;;;;20.23;5.37;;;8.60;99.90;;;7.83;100.00;98984.00;5073004;28;20714;-66
2023/12/11 08:25:51;;;;;;;24.90;6.27;;;8.60;99.90;;;7.82;100.00;98979.66;5073288;28;20232;-66
2023/12/11 08:28:19;;;;;;;22.93;5.33;;;8.60;99.90;;;7.80;100.00;98985.22;5073151;28;20743;-69
2023/12/11 08:30:48;;;;;;;20.33;4.93;;;8.60;99.90;;;7.84;100.00;98983.78;5073514;28;20267;-69
2023/12/11 08:33:16;;;;;;;23.73;5.20;;;8.60;99.90;;;7.83;100.00;98979.50;5073368;28;20228;-69
2023/12/11 08:35:44;;;;;;;20.83;5.87;;;8.70;99.90;;;7.83;100.00;98987.50;5073547;28;20254;-69
2023/12/11 08:38:14;;;;;;;20.50;4.90;;;8.60;99.90;;;7.83;100.00;98971.50;5073398;28;20657;-69
2023/12/11 08:40:43;;;;;;;15.70;4.73;;;8.70;99.90;;;7.83;100.00;98973.34;5073584;28;20205;-69
2023/12/11 08:43:13;;;;;;;25.50;4.43;;;8.60;99.90;;;7.83;100.00;98979.50;5073206;28;20631;-69
2023/12/11 08:45:42;;;;;;;22.30;5.13;;;8.70;99.90;;;7.83;100.00;98976.00;5073500;28;20210;-69
2023/12/11 08:48:10;;;;;;;20.47;4.60;;;8.70;99.90;;;7.83;100.00;98976.00;5073678;28;20244;-69
2023/12/11 08:50:39;;;;;;;22.23;5.00;;;8.60;99.90;;;7.82;100.00;98975.19;5073584;28;20292;-69
2023/12/11 08:53:07;;;;;;;19.30;4.17;;;8.60;99.90;;;7.84;100.00;98983.00;5073501;28;20312;-69
2023/12/11 08:55:36;;;;;;;17.70;4.23;;;8.70;99.90;;;7.87;100.00;98982.63;5073754;28;20296;-69
2023/12/11 08:58:04;;;;;;;21.50;4.70;;;8.70;99.90;;;7.88;100.00;98970.94;5073673;28;20292;-69
2023/12/11 09:00:34;;;;;;;13.97;4.00;;;8.70;99.90;;;7.89;100.00;98976.09;5073613;28;20213;-69
2023/12/11 09:03:02;;;;;;;17.93;4.30;;;8.70;99.90;;;7.92;100.00;98980.22;5073246;28;20227;-69
2023/12/11 09:05:31;;;;;;;17.83;4.23;;;8.70;99.90;;;7.95;100.00;98977.16;5073685;28;20259;-69
2023/12/11 09:07:59;;;;;;;13.53;3.97;;;8.80;99.90;;;7.96;100.00;98971.66;5073430;28;20206;-69
2023/12/11 09:10:27;;;;;;;12.57;4.63;;;8.80;99.90;;;7.97;100.00;98972.50;5073056;28;20750;-69
2023/12/11 09:12:56;;;;;;;15.40;4.93;;;8.80;99.90;;;7.98;100.00;98972.28;5073187;28;20355;-69
2023/12/11 09:15:24;;;;;;;15.67;3.67;;;8.80;99.90;;;7.97;100.00;98970.66;5073323;28;20202;-69
2023/12/11 09:17:53;;;;;;;15.80;3.63;;;8.80;99.90;;;7.98;100.00;98974.16;5073435;28;20615;-69
2023/12/11 09:20:22;;;;;;;15.40;4.30;;;8.80;99.90;;;7.99;100.00;98973.13;5076921;28;20228;-69
2023/12/11 09:22:51;;;;;;;14.67;4.00;;;8.80;99.90;;;7.99;100.00;98965.97;5076856;28;20279;-69
2023/12/11 09:25:19;;;;;;;11.93;3.90;;;8.80;99.90;;;8.04;100.00;98976.06;5076901;28;20679;-69
2023/12/11 09:27:47;;;;;;;13.40;3.40;;;8.80;99.90;;;8.05;100.00;98967.03;5076601;28;20667;-69
2023/12/11 09:30:16;;;;;;;15.20;3.70;;;8.90;99.90;;;8.05;100.00;98964.38;5076745;28;20220;-69
2023/12/11 09:32:45;;;;;;;11.50;3.80;;;8.90;99.90;;;8.05;100.00;98959.03;5076343;28;20671;-69
2023/12/11 09:35:15;;;;;;;13.70;3.87;;;8.90;99.90;;;8.06;100.00;98961.53;5076538;28;20683;-69
2023/12/11 09:37:45;;;;;;;11.70;3.67;;;8.90;99.90;;;8.07;100.00;98957.03;5076304;28;20664;-69
2023/12/11 09:40:14;;;;;;;10.93;3.60;;;8.90;99.90;;;8.09;100.00;98963.00;5076746;28;20259;-69
2023/12/11 09:42:45;;;;;;;11.43;3.93;;;8.90;99.90;;;8.07;100.00;98962.38;5076380;28;20721;-69
2023/12/11 09:45:18;;;;;;;10.10;3.57;;;8.90;99.90;;;8.05;100.00;98964.38;5076613;28;20190;-69
2023/12/11 09:47:51;;;;;;;11.87;3.60;;;8.90;99.90;;;8.04;100.00;98965.41;5076592;28;20232;-69
2023/12/11 09:50:39;;;;;;;8.20;3.57;;;8.80;99.90;;;8.01;100.00;98963.91;5076566;28;20197;-69
2023/12/11 09:53:08;;;;;;;9.67;3.67;;;8.80;99.90;;;8.00;100.00;98964.13;5076275;28;20316;-69
2023/12/11 09:55:36;;;;;;;12.57;3.80;;;8.80;99.90;;;8.00;100.00;98961.47;5076164;28;20208;-69
2023/12/11 09:58:05;;;;;;;9.50;3.77;;;8.80;99.90;;;7.99;100.00;98955.31;5075978;28;20248;-69
2023/12/11 10:00:35;;;;;;;12.50;3.97;;;8.80;99.90;;;7.99;100.00;98955.31;5076376;28;20202;-69
2023/12/11 10:03:07;;;;;;;11.60;4.20;;;8.80;99.90;;;8.02;100.00;98959.41;5075908;28;20576;-69
2023/12/11 10:05:37;;;;;;;12.70;3.87;;;8.80;99.90;;;8.04;100.00;98962.75;5076141;28;20643;-69
2023/12/11 10:08:06;;;;;;;14.43;4.50;;;8.80;99.90;;;8.04;100.00;98954.75;5075538;28;20740;-69
2023/12/11 10:10:38;;;;;;;18.53;4.40;;;8.80;99.90;;;8.01;100.00;98947.94;5075772;28;20271;-69
2023/12/11 10:13:06;;;;;;;12.20;4.43;;;8.80;99.90;;;8.04;100.00;98954.75;5075226;28;20738;-69
2023/12/11 10:15:36;;;;;;;19.10;4.90;;;8.80;99.90;;;8.05;100.00;98949.22;5075445;28;20675;-69
2023/12/11 10:18:09;;;;;;;15.90;4.53;;;8.90;99.90;;;8.04;100.00;98946.75;5075671;28;20209;-69
2023/12/11 10:20:42;;;;;;;12.73;4.77;;;8.90;99.90;;;8.05;100.00;98937.72;5075572;28;20288;-69
2023/12/11 10:23:14;;;;;;;18.37;5.20;;;8.90;99.90;;;8.04;100.00;98928.09;5075633;28;20225;-69
2023/12/11 10:25:45;;;;;;;16.50;4.47;;;8.90;99.90;;;8.03;100.00;98923.78;5075300;28;20647;-69
2023/12/11 10:28:17;;;;;;;18.10;5.43;;;8.80;99.90;;;8.03;100.00;98929.09;5075576;28;20193;-69
2023/12/11 10:30:54;;;;;;;18.57;5.87;;;8.80;99.90;;;8.02;100.00;98927.44;5074839;28;20243;-69